^^
Station Historical Data
Daily Summary for March 10, 2018 Units:  English    Metric   Both
« Previous Day
Next Day »
Daily Weekly Monthly Yearly Custom
  High: Low: Average:
Temperature: TemperatureF °F 59.0 °F 69.4 °F
Dew Point: DewpointF °F 15.8 °F 32 °F
Humidity: Humidity% 8% 27%
Wind Speed: WindSpeedMPHmph 0.0mph 4.6mph
Wind Gust: WindSpeedGustMPHmph - -
Wind- - SSW
Pressure: PressureIn in 29.68 in -
Precipitation: 0.00 in    
Historical Graphs
 
 
Tabular Data for March 10, 2018
Time Temperature Dew Point Pressure Wind Wind Speed Wind Gust Humidity Rainfall Rate (Hourly) solar Conditions
TemperatureF °F DewpointF °F PressureIn in Calm     Humidity% HourlyPrecipIn in SolarRadiationWatts/m^2 W/m2 Conditions
00:03 72.1 °F 37.2 °F 29.75 in SSW 4.9 mph 8.0 mph 28% 0.00 in 0.0 W/m2
00:08 71.8 °F 37.8 °F 29.75 in SSW 6.0 mph 9.0 mph 29% 0.00 in 0.0 W/m2
00:13 71.6 °F 37.6 °F 29.76 in SSW 8.1 mph 8.1 mph 29% 0.00 in 0.0 W/m2
00:23 71.2 °F 38.3 °F 29.76 in SSW 8.1 mph 10.0 mph 30% 0.00 in 0.0 W/m2
00:28 71.1 °F 38.1 °F 29.76 in SSW 4.9 mph 8.0 mph 30% 0.00 in 0.0 W/m2
00:34 70.7 °F 38.7 °F 29.76 in SSW 6.9 mph 9.0 mph 31% 0.00 in 0.0 W/m2
00:39 70.3 °F 38.3 °F 29.76 in SSW 4.9 mph 7.0 mph 31% 0.00 in 0.0 W/m2
00:44 70.2 °F 38.1 °F 29.76 in SSW 4.0 mph 6.0 mph 31% 0.00 in 0.0 W/m2
00:54 69.4 °F 38.3 °F 29.75 in SSW 4.0 mph 6.0 mph 32% 0.00 in 0.0 W/m2
00:59 69.1 °F 37.9 °F 29.75 in SSW 4.0 mph 5.0 mph 32% 0.00 in 0.0 W/m2
01:04 68.7 °F 37.6 °F 29.75 in SSW 4.0 mph 6.0 mph 32% 0.00 in 0.0 W/m2
01:14 68.2 °F 37.9 °F 29.75 in SSW 4.0 mph 5.0 mph 33% 0.00 in 0.0 W/m2
01:19 67.8 °F 37.6 °F 29.75 in SSW 4.9 mph 5.0 mph 33% 0.00 in 0.0 W/m2
01:24 67.6 °F 37.6 °F 29.75 in SSW 4.0 mph 6.0 mph 33% 0.00 in 0.0 W/m2
01:29 67.8 °F 37.6 °F 29.75 in SSW 4.9 mph 6.0 mph 33% 0.00 in 0.0 W/m2
01:34 67.8 °F 37.6 °F 29.75 in SSW 4.0 mph 7.0 mph 33% 0.00 in 0.0 W/m2
01:40 67.6 °F 37.6 °F 29.75 in SSW 4.0 mph 6.0 mph 33% 0.00 in 0.0 W/m2
01:45 67.5 °F 37.4 °F 29.75 in SSW 4.9 mph 5.0 mph 33% 0.00 in 0.0 W/m2
01:50 67.3 °F 37.2 °F 29.75 in SSW 4.9 mph 6.0 mph 33% 0.00 in 0.0 W/m2
01:55 66.9 °F 37.6 °F 29.75 in SSW 4.9 mph 6.0 mph 34% 0.00 in 0.0 W/m2
02:00 66.9 °F 37.6 °F 29.75 in SSW 4.9 mph 5.0 mph 34% 0.00 in 0.0 W/m2
02:05 66.9 °F 37.6 °F 29.75 in SSW 4.0 mph 5.0 mph 34% 0.00 in 0.0 W/m2
02:10 66.7 °F 37.4 °F 29.75 in SSW 2.0 mph 4.0 mph 34% 0.00 in 0.0 W/m2
02:16 66.6 °F 37.4 °F 29.75 in Calm     34% 0.00 in 0.0 W/m2
02:21 66.4 °F 37.2 °F 29.75 in Calm     34% 0.00 in 0.0 W/m2
02:26 66.0 °F 37.6 °F 29.75 in Calm     35% 0.00 in 0.0 W/m2
02:32 65.8 °F 37.4 °F 29.75 in Calm     35% 0.00 in 0.0 W/m2
02:37 65.5 °F 37.0 °F 29.75 in Calm     35% 0.00 in 0.0 W/m2
02:43 65.5 °F 37.0 °F 29.75 in Calm     35% 0.00 in 0.0 W/m2
02:48 65.3 °F 36.9 °F 29.74 in Calm     35% 0.00 in 0.0 W/m2
02:53 65.3 °F 36.9 °F 29.74 in Calm     35% 0.00 in 0.0 W/m2
03:03 64.6 °F 37.0 °F 29.74 in Calm     36% 0.00 in 0.0 W/m2
03:09 63.9 °F 36.3 °F 29.74 in Calm     36% 0.00 in 0.0 W/m2
03:14 63.1 °F 36.5 °F 29.74 in Calm     37% 0.00 in 0.0 W/m2
03:19 62.8 °F 36.9 °F 29.74 in Calm     38% 0.00 in 0.0 W/m2
03:25 62.4 °F 36.5 °F 29.74 in Calm     38% 0.00 in 0.0 W/m2
03:35 62.2 °F 36.3 °F 29.74 in Calm     38% 0.00 in 0.0 W/m2
03:40 62.1 °F 36.1 °F 29.74 in Calm     38% 0.00 in 0.0 W/m2
03:45 62.1 °F 36.1 °F 29.74 in Calm     38% 0.00 in 0.0 W/m2
03:50 62.1 °F 36.1 °F 29.74 in Calm     38% 0.00 in 0.0 W/m2
03:56 62.4 °F 35.8 °F 29.74 in Calm     37% 0.00 in 0.0 W/m2
04:01 62.8 °F 36.1 °F 29.74 in Calm     37% 0.00 in 0.0 W/m2
04:11 63.0 °F 35.6 °F 29.74 in Calm     36% 0.00 in 0.0 W/m2
04:16 63.0 °F 36.3 °F 29.74 in Calm     37% 0.00 in 0.0 W/m2
04:21 62.6 °F 36.0 °F 29.74 in Calm     37% 0.00 in 0.0 W/m2
04:27 62.4 °F 35.1 °F 29.73 in Calm     36% 0.00 in 0.0 W/m2
04:37 62.1 °F 34.9 °F 29.73 in Calm     36% 0.00 in 0.0 W/m2
04:42 61.9 °F 35.2 °F 29.73 in Calm     37% 0.00 in 0.0 W/m2
04:47 61.5 °F 35.6 °F 29.73 in Calm     38% 0.00 in 0.0 W/m2
04:54 61.3 °F 35.6 °F 29.73 in Calm     38% 0.00 in 0.0 W/m2
05:04 60.8 °F 35.1 °F 29.73 in Calm     38% 0.00 in 0.0 W/m2
05:09 60.4 °F 35.4 °F 29.73 in Calm     39% 0.00 in 0.0 W/m2
05:14 59.9 °F 34.9 °F 29.74 in Calm     39% 0.00 in 0.0 W/m2
05:19 59.7 °F 34.7 °F 29.74 in Calm     39% 0.00 in 0.0 W/m2
05:24 59.5 °F 34.5 °F 29.74 in Calm     39% 0.00 in 0.0 W/m2
05:30 59.4 °F 34.3 °F 29.74 in Calm     39% 0.00 in 0.0 W/m2
05:35 59.4 °F 33.8 °F 29.74 in Calm     38% 0.00 in 0.0 W/m2
05:40 59.5 °F 34.0 °F 29.74 in Calm     38% 0.00 in 0.0 W/m2
05:45 59.5 °F 34.0 °F 29.74 in Calm     38% 0.00 in 0.0 W/m2
05:51 59.2 °F 34.2 °F 29.75 in Calm     39% 0.00 in 0.0 W/m2
05:56 59.0 °F 34.2 °F 29.75 in Calm     39% 0.00 in 0.0 W/m2
06:01 59.0 °F 34.2 °F 29.75 in Calm     39% 0.00 in 0.0 W/m2
06:07 59.0 °F 34.2 °F 29.75 in Calm     39% 0.00 in 0.0 W/m2
06:12 59.4 °F 35.6 °F 29.75 in SSW 2.9 mph 5.0 mph 41% 0.00 in 0.0 W/m2
06:22 60.8 °F 36.3 °F 29.76 in SSW 4.9 mph 6.0 mph 40% 0.00 in 0.0 W/m2
06:38 60.6 °F 36.1 °F 29.76 in SSW 0.9 mph 3.0 mph 40% 0.00 in 0.0 W/m2
06:47 60.1 °F 35.6 °F 29.77 in Calm     40% 0.00 in 5.0 W/m2
06:52 59.9 °F 36.1 °F 29.77 in Calm     41% 0.00 in 7.0 W/m2
06:58 59.5 °F 35.8 °F 29.77 in Calm     41% 0.00 in 11.0 W/m2
07:09 59.5 °F 37.0 °F 29.77 in Calm     43% 0.00 in 21.0 W/m2
07:17 59.9 °F 36.7 °F 29.77 in Calm     42% 0.00 in 32.0 W/m2
07:29 60.4 °F 37.2 °F 29.77 in Calm     42% 0.00 in 62.0 W/m2
07:44 61.7 °F 36.5 °F 29.77 in Calm     39% 0.00 in 125.0 W/m2
08:08 64.6 °F 36.3 °F 29.77 in Calm     35% 0.00 in 241.0 W/m2
08:50 69.1 °F 30.7 °F 29.77 in SSW 8.9 mph 10.0 mph 24% 0.00 in 388.0 W/m2
09:05 70.0 °F 32.5 °F 29.77 in SSW 8.1 mph 10.0 mph 25% 0.00 in 443.0 W/m2
09:15 70.5 °F 33.1 °F 29.77 in SSW 8.9 mph 10.0 mph 25% 0.00 in 476.0 W/m2
09:30 71.6 °F 30.7 °F 29.78 in SSW 6.9 mph 13.0 mph 22% 0.00 in 531.0 W/m2
10:10 73.8 °F 30.2 °F 29.77 in SSW 6.0 mph 11.0 mph 20% 0.00 in 654.0 W/m2
10:21 74.5 °F 29.5 °F 29.77 in SSW 4.9 mph 9.0 mph 19% 0.00 in 680.0 W/m2
10:36 76.1 °F 28.0 °F 29.77 in SSW 6.9 mph 10.0 mph 17% 0.00 in 714.0 W/m2
10:49 76.8 °F 25.7 °F 29.77 in SSW 6.9 mph 7.0 mph 15% 0.00 in 758.0 W/m2
11:00 77.5 °F 26.2 °F 29.77 in SSW 6.0 mph 8.0 mph 15% 0.00 in 780.0 W/m2
11:46 80.1 °F 24.8 °F 29.74 in SSW 6.0 mph 10.0 mph 13% 0.00 in 925.0 W/m2
11:54 80.8 °F 25.3 °F 29.74 in SSW 8.9 mph 11.0 mph 13% 0.00 in 970.0 W/m2
12:04 81.1 °F 25.7 °F 29.74 in SW 2.0 mph 11.0 mph 13% 0.00 in 668.0 W/m2
12:14 81.7 °F 26.1 °F 29.74 in SW 4.9 mph 9.0 mph 13% 0.00 in 956.0 W/m2
12:24 82.2 °F 26.4 °F 29.73 in SW 8.1 mph 10.0 mph 13% 0.00 in 972.0 W/m2
12:35 82.9 °F 25.2 °F 29.73 in SW 8.9 mph 10.0 mph 12% 0.00 in 974.0 W/m2
12:46 82.9 °F 25.2 °F 29.73 in SW 6.9 mph 11.0 mph 12% 0.00 in 1025.0 W/m2
12:57 82.8 °F 25.0 °F 29.73 in SW 6.0 mph 11.0 mph 12% 0.00 in 1067.0 W/m2
13:27 82.0 °F 24.4 °F 29.72 in SW 6.0 mph 9.0 mph 12% 0.00 in 376.0 W/m2
13:42 82.8 °F 22.8 °F 29.72 in SSW 4.0 mph 13.0 mph 11% 0.00 in 821.0 W/m2
14:12 82.6 °F 22.8 °F 29.71 in SSW 4.9 mph 10.0 mph 11% 0.00 in 548.0 W/m2
14:23 83.3 °F 21.0 °F 29.71 in SW 8.9 mph 11.0 mph 10% 0.00 in 923.0 W/m2
14:33 83.8 °F 21.4 °F 29.70 in SSW 4.9 mph 11.0 mph 10% 0.00 in 810.0 W/m2
14:58 83.7 °F 21.4 °F 29.69 in SSW 8.9 mph 9.0 mph 10% 0.00 in 705.0 W/m2
15:08 84.2 °F 21.7 °F 29.68 in Calm   9.0 mph 10% 0.00 in 809.0 W/m2
15:19 84.7 °F 19.6 °F 29.68 in SW 8.1 mph 14.0 mph 9% 0.00 in 396.0 W/m2
15:33 84.0 °F 19.0 °F 29.68 in SW 8.9 mph 10.0 mph 9% 0.00 in 359.0 W/m2
15:43 83.8 °F 19.0 °F 29.68 in SW 6.0 mph 7.0 mph 9% 0.00 in 336.0 W/m2
15:53 84.0 °F 16.3 °F 29.68 in SSW 6.0 mph 8.0 mph 8% 0.00 in 306.0 W/m2
16:13 84.2 °F 16.5 °F 29.68 in SSW 10.1 mph 10.1 mph 8% 0.00 in 334.0 W/m2
16:23 83.7 °F 16.2 °F 29.68 in SSW 8.9 mph 12.0 mph 8% 0.00 in 246.0 W/m2
16:34 83.5 °F 16.0 °F 29.68 in SSW 4.9 mph 11.0 mph 8% 0.00 in 246.0 W/m2
16:49 83.1 °F 15.8 °F 29.68 in SSW 8.9 mph 12.0 mph 8% 0.00 in 174.0 W/m2
17:59 82.9 °F 18.3 °F 29.68 in SSW 10.1 mph 19.0 mph 9% 0.00 in 320.0 W/m2
18:23 82.0 °F 20.1 °F 29.69 in SSW 12.1 mph 15.0 mph 10% 0.00 in 128.0 W/m2
18:30 81.3 °F 19.6 °F 29.69 in SSW 8.9 mph 14.0 mph 10% 0.00 in 81.0 W/m2
18:35 81.3 °F 19.6 °F 29.69 in SSW 8.9 mph 14.0 mph 10% 0.00 in 63.0 W/m2
18:46 80.8 °F 19.2 °F 29.69 in SSW 13.0 mph 14.0 mph 10% 0.00 in 30.0 W/m2
18:52 80.4 °F 18.9 °F 29.69 in SSW 10.1 mph 15.0 mph 10% 0.00 in 19.0 W/m2
19:15 79.2 °F 20.1 °F 29.70 in SSW 10.1 mph 15.0 mph 11% 0.00 in 5.0 W/m2
19:30 78.1 °F 21.4 °F 29.70 in SSW 8.1 mph 14.0 mph 12% 0.00 in 0.0 W/m2
19:59 76.5 °F 29.8 °F 29.72 in SSW 11.0 mph 17.0 mph 18% 0.00 in 0.0 W/m2
20:26 75.0 °F 30.0 °F 29.73 in SSW 14.1 mph 14.1 mph 19% 0.00 in 0.0 W/m2
20:38 74.7 °F 29.7 °F 29.73 in SSW 10.1 mph 11.0 mph 19% 0.00 in 0.0 W/m2
20:46 74.3 °F 29.3 °F 29.74 in SSW 8.9 mph 13.0 mph 19% 0.00 in 0.0 W/m2
20:51 74.1 °F 29.3 °F 29.74 in SSW 6.9 mph 12.0 mph 19% 0.00 in 0.0 W/m2
20:56 73.8 °F 30.2 °F 29.75 in SSW 14.1 mph 14.1 mph 20% 0.00 in 0.0 W/m2
21:01 73.6 °F 32.4 °F 29.75 in SSW 6.9 mph 12.0 mph 22% 0.00 in 0.0 W/m2
21:06 73.0 °F 33.1 °F 29.75 in SSW 6.9 mph 9.0 mph 23% 0.00 in 0.0 W/m2
21:11 72.7 °F 33.8 °F 29.76 in SSW 8.1 mph 11.0 mph 24% 0.00 in 0.0 W/m2
21:21 72.1 °F 35.4 °F 29.76 in SSW 11.0 mph 13.0 mph 26% 0.00 in 0.0 W/m2
21:27 72.0 °F 36.1 °F 29.76 in SSW 11.0 mph 11.0 mph 27% 0.00 in 0.0 W/m2
21:32 71.6 °F 35.8 °F 29.77 in SSW 8.9 mph 12.0 mph 27% 0.00 in 0.0 W/m2
21:37 71.2 °F 36.5 °F 29.77 in SSW 6.9 mph 14.0 mph 28% 0.00 in 0.0 W/m2
21:43 70.9 °F 36.1 °F 29.77 in SSW 6.0 mph 9.0 mph 28% 0.00 in 0.0 W/m2
21:49 70.7 °F 36.0 °F 29.77 in SSW 8.9 mph 10.0 mph 28% 0.00 in 0.0 W/m2
22:01 70.2 °F 36.5 °F 29.78 in SSW 11.0 mph 11.0 mph 29% 0.00 in 0.0 W/m2
22:21 69.4 °F 35.8 °F 29.79 in SSW 4.9 mph 8.0 mph 29% 0.00 in 0.0 W/m2
22:28 69.1 °F 35.4 °F 29.79 in SSW 6.9 mph 9.0 mph 29% 0.00 in 0.0 W/m2
22:37 68.9 °F 35.4 °F 29.79 in SSW 6.9 mph 10.0 mph 29% 0.00 in 0.0 W/m2
22:42 68.7 °F 35.2 °F 29.80 in SSW 8.1 mph 10.0 mph 29% 0.00 in 0.0 W/m2
22:47 68.5 °F 35.1 °F 29.80 in SSW 8.1 mph 10.0 mph 29% 0.00 in 0.0 W/m2
22:57 68.2 °F 34.7 °F 29.80 in SSW 6.0 mph 9.0 mph 29% 0.00 in 0.0 W/m2
23:02 67.8 °F 34.3 °F 29.80 in SSW 6.9 mph 8.0 mph 29% 0.00 in 0.0 W/m2
23:07 67.6 °F 34.2 °F 29.80 in SSW 4.9 mph 8.0 mph 29% 0.00 in 0.0 W/m2
23:12 67.6 °F 34.2 °F 29.80 in SSW 6.9 mph 11.0 mph 29% 0.00 in 0.0 W/m2
23:18 67.6 °F 34.2 °F 29.80 in SSW 6.0 mph 9.0 mph 29% 0.00 in 0.0 W/m2
23:27 67.3 °F 34.7 °F 29.80 in SSW 6.9 mph 9.0 mph 30% 0.00 in 0.0 W/m2
23:33 67.1 °F 35.4 °F 29.80 in SSW 6.9 mph 10.0 mph 31% 0.00 in 0.0 W/m2
23:38 66.9 °F 35.2 °F 29.80 in SSW 6.9 mph 13.0 mph 31% 0.00 in 0.0 W/m2
23:43 66.9 °F 34.5 °F 29.81 in SSW 6.0 mph 10.0 mph 30% 0.00 in 0.0 W/m2
23:53 66.6 °F 35.1 °F 29.81 in SSW 8.9 mph 11.0 mph 31% 0.00 in 0.0 W/m2
23:58 66.4 °F 34.0 °F 29.81 in SSW 6.0 mph 11.0 mph 30% 0.00 in 0.0 W/m2
Canyon Roadhouse, Fishriver Canyon, Namibia
Compliments of Weather Underground - 2.5 mb